<?xml version='1.0' encoding='UTF-8'?><gpx version="1.1" creator="JPX - https://github.com/jenetics/jpx" xmlns="http://www.topografix.com/GPX/1/1"><trk><trkseg><trkpt lat="44.8057517" lon="9.22755"><ele>494.0</ele><time>2026-04-21T16:55:14.666Z</time></trkpt><trkpt lat="44.8057283" lon="9.227465"><ele>494.0</ele><time>2026-04-21T16:55:15.667Z</time></trkpt><trkpt lat="44.805695" lon="9.2273433"><ele>494.0</ele><time>2026-04-21T16:55:16.667Z</time></trkpt><trkpt lat="44.8056533" lon="9.2272"><ele>494.0</ele><time>2026-04-21T16:55:17.666Z</time></trkpt><trkpt lat="44.8056033" lon="9.2270533"><ele>494.0</ele><time>2026-04-21T16:55:18.667Z</time></trkpt><trkpt lat="44.8055567" lon="9.2269167"><ele>493.66666666666663</ele><time>2026-04-21T16:55:19.666Z</time></trkpt><trkpt lat="44.8055183" lon="9.2267917"><ele>493.3333333333333</ele><time>2026-04-21T16:55:20.666Z</time></trkpt><trkpt lat="44.8054833" lon="9.2266717"><ele>493.0</ele><time>2026-04-21T16:55:21.666Z</time></trkpt><trkpt lat="44.8054467" lon="9.2265533"><ele>492.66666666666663</ele><time>2026-04-21T16:55:22.667Z</time></trkpt><trkpt lat="44.8054217" lon="9.2264383"><ele>492.3333333333333</ele><time>2026-04-21T16:55:23.667Z</time></trkpt><trkpt lat="44.8054133" lon="9.2263267"><ele>492.0</ele><time>2026-04-21T16:55:24.666Z</time></trkpt><trkpt lat="44.80543" lon="9.2262083"><ele>490.75</ele><time>2026-04-21T16:55:25.666Z</time></trkpt><trkpt lat="44.8054733" lon="9.2260867"><ele>489.5</ele><time>2026-04-21T16:55:26.666Z</time></trkpt><trkpt lat="44.8055367" lon="9.2259583"><ele>488.25</ele><time>2026-04-21T16:55:27.666Z</time></trkpt><trkpt lat="44.8056117" lon="9.2258317"><ele>487.0</ele><time>2026-04-21T16:55:28.667Z</time></trkpt><trkpt lat="44.805695" lon="9.2256983"><ele>486.0</ele><time>2026-04-21T16:55:29.667Z</time></trkpt><trkpt lat="44.80578" lon="9.2256017"><ele>485.0</ele><time>2026-04-21T16:55:30.666Z</time></trkpt><trkpt lat="44.805885" lon="9.2255317"><ele>484.0</ele><time>2026-04-21T16:55:31.667Z</time></trkpt><trkpt lat="44.8060117" lon="9.22548"><ele>483.0</ele><time>2026-04-21T16:55:32.666Z</time></trkpt><trkpt lat="44.8061417" lon="9.2254383"><ele>483.0</ele><time>2026-04-21T16:55:33.667Z</time></trkpt><trkpt lat="44.8062817" lon="9.2254033"><ele>483.0</ele><time>2026-04-21T16:55:34.666Z</time></trkpt><trkpt lat="44.80641" lon="9.225365"><ele>483.0</ele><time>2026-04-21T16:55:35.666Z</time></trkpt><trkpt lat="44.806515" lon="9.2252983"><ele>483.0</ele><time>2026-04-21T16:55:36.666Z</time></trkpt><trkpt lat="44.8065933" lon="9.2252067"><ele>483.0</ele><time>2026-04-21T16:55:37.666Z</time></trkpt><trkpt lat="44.8066517" lon="9.225085"><ele>483.0</ele><time>2026-04-21T16:55:38.666Z</time></trkpt><trkpt lat="44.80669" lon="9.224925"><ele>483.0</ele><time>2026-04-21T16:55:39.667Z</time></trkpt><trkpt lat="44.8067117" lon="9.2247483"><ele>483.0</ele><time>2026-04-21T16:55:40.666Z</time></trkpt><trkpt lat="44.8067183" lon="9.2245733"><ele>482.0</ele><time>2026-04-21T16:55:41.666Z</time></trkpt><trkpt lat="44.806705" lon="9.224415"><ele>481.0</ele><time>2026-04-21T16:55:42.667Z</time></trkpt><trkpt lat="44.806665" lon="9.224265"><ele>480.0</ele><time>2026-04-21T16:55:43.667Z</time></trkpt><trkpt lat="44.8066017" lon="9.2241133"><ele>479.0</ele><time>2026-04-21T16:55:44.667Z</time></trkpt><trkpt lat="44.8065217" lon="9.2239733"><ele>478.0</ele><time>2026-04-21T16:55:45.667Z</time></trkpt><trkpt lat="44.806445" lon="9.2238417"><ele>477.0</ele><time>2026-04-21T16:55:46.666Z</time></trkpt><trkpt lat="44.8063833" lon="9.223705"><ele>476.0</ele><time>2026-04-21T16:55:47.666Z</time></trkpt><trkpt lat="44.806355" lon="9.223575"><ele>475.0</ele><time>2026-04-21T16:55:48.667Z</time></trkpt><trkpt lat="44.80636" lon="9.2234367"><ele>474.0</ele><time>2026-04-21T16:55:49.666Z</time></trkpt><trkpt lat="44.8064033" lon="9.22329"><ele>472.75</ele><time>2026-04-21T16:55:50.667Z</time></trkpt><trkpt lat="44.806475" lon="9.2231317"><ele>471.5</ele><time>2026-04-21T16:55:51.667Z</time></trkpt><trkpt lat="44.806565" lon="9.22297"><ele>470.25</ele><time>2026-04-21T16:55:52.667Z</time></trkpt><trkpt lat="44.80666" lon="9.2228083"><ele>469.0</ele><time>2026-04-21T16:55:53.666Z</time></trkpt><trkpt lat="44.8067583" lon="9.2226567"><ele>470.0</ele><time>2026-04-21T16:55:54.667Z</time></trkpt><trkpt lat="44.806855" lon="9.2225167"><ele>471.0</ele><time>2026-04-21T16:55:55.667Z</time></trkpt><trkpt lat="44.8069533" lon="9.2223933"><ele>472.0</ele><time>2026-04-21T16:55:56.667Z</time></trkpt><trkpt lat="44.8070583" lon="9.222285"><ele>473.0</ele><time>2026-04-21T16:55:57.666Z</time></trkpt><trkpt lat="44.8071467" lon="9.2222033"><ele>470.75</ele><time>2026-04-21T16:55:58.667Z</time></trkpt><trkpt lat="44.80724" lon="9.222155"><ele>468.5</ele><time>2026-04-21T16:55:59.667Z</time></trkpt><trkpt lat="44.807355" lon="9.22214"><ele>466.25</ele><time>2026-04-21T16:56:00.667Z</time></trkpt><trkpt lat="44.8074917" lon="9.222135"><ele>464.0</ele><time>2026-04-21T16:56:01.666Z</time></trkpt><trkpt lat="44.8076467" lon="9.2221233"><ele>464.0</ele><time>2026-04-21T16:56:02.667Z</time></trkpt><trkpt lat="44.8078117" lon="9.222115"><ele>464.0</ele><time>2026-04-21T16:56:03.666Z</time></trkpt><trkpt lat="44.80797" lon="9.2221"><ele>464.0</ele><time>2026-04-21T16:56:04.666Z</time></trkpt><trkpt lat="44.8081133" lon="9.222085"><ele>464.0</ele><time>2026-04-21T16:56:05.666Z</time></trkpt><trkpt lat="44.8082283" lon="9.2220417"><ele>464.0</ele><time>2026-04-21T16:56:06.667Z</time></trkpt><trkpt lat="44.8083267" lon="9.22198"><ele>464.0</ele><time>2026-04-21T16:56:07.666Z</time></trkpt><trkpt lat="44.8083983" lon="9.2218717"><ele>464.0</ele><time>2026-04-21T16:56:08.667Z</time></trkpt><trkpt lat="44.80846" lon="9.22172"><ele>464.0</ele><time>2026-04-21T16:56:09.666Z</time></trkpt><trkpt lat="44.8085183" lon="9.221535"><ele>464.0</ele><time>2026-04-21T16:56:10.667Z</time></trkpt><trkpt lat="44.8085767" lon="9.2213417"><ele>464.0</ele><time>2026-04-21T16:56:11.667Z</time></trkpt><trkpt lat="44.80864" lon="9.2211417"><ele>464.0</ele><time>2026-04-21T16:56:12.667Z</time></trkpt><trkpt lat="44.8087117" lon="9.2209633"><ele>464.0</ele><time>2026-04-21T16:56:13.667Z</time></trkpt><trkpt lat="44.8087983" lon="9.220815"><ele>464.0</ele><time>2026-04-21T16:56:14.667Z</time></trkpt><trkpt lat="44.80891" lon="9.2206933"><ele>464.0</ele><time>2026-04-21T16:56:15.667Z</time></trkpt><trkpt lat="44.8090483" lon="9.2206"><ele>464.0</ele><time>2026-04-21T16:56:16.666Z</time></trkpt><trkpt lat="44.8092133" lon="9.2205283"><ele>463.0</ele><time>2026-04-21T16:56:17.667Z</time></trkpt><trkpt lat="44.809395" lon="9.2204633"><ele>462.0</ele><time>2026-04-21T16:56:18.666Z</time></trkpt><trkpt lat="44.8095667" lon="9.2204067"><ele>461.0</ele><time>2026-04-21T16:56:19.667Z</time></trkpt><trkpt lat="44.8097167" lon="9.2203383"><ele>461.0</ele><time>2026-04-21T16:56:20.666Z</time></trkpt><trkpt lat="44.8098517" lon="9.2202517"><ele>461.0</ele><time>2026-04-21T16:56:21.667Z</time></trkpt><trkpt lat="44.8099717" lon="9.2201583"><ele>461.0</ele><time>2026-04-21T16:56:22.666Z</time></trkpt><trkpt lat="44.8100767" lon="9.22004"><ele>461.0</ele><time>2026-04-21T16:56:23.667Z</time></trkpt><trkpt lat="44.8101633" lon="9.2198867"><ele>462.0</ele><time>2026-04-21T16:56:24.666Z</time></trkpt><trkpt lat="44.8102517" lon="9.2197217"><ele>463.0</ele><time>2026-04-21T16:56:25.666Z</time></trkpt><trkpt lat="44.8103383" lon="9.219535"><ele>464.0</ele><time>2026-04-21T16:56:26.666Z</time></trkpt><trkpt lat="44.8104267" lon="9.2193233"><ele>464.0</ele><time>2026-04-21T16:56:27.667Z</time></trkpt><trkpt lat="44.810505" lon="9.219115"><ele>464.0</ele><time>2026-04-21T16:56:28.666Z</time></trkpt><trkpt lat="44.81059" lon="9.21892"><ele>464.0</ele><time>2026-04-21T16:56:29.666Z</time></trkpt><trkpt lat="44.810675" lon="9.2187317"><ele>464.0</ele><time>2026-04-21T16:56:30.667Z</time></trkpt><trkpt lat="44.8107633" lon="9.21856"><ele>464.0</ele><time>2026-04-21T16:56:31.667Z</time></trkpt><trkpt lat="44.8108683" lon="9.2184033"><ele>464.0</ele><time>2026-04-21T16:56:32.666Z</time></trkpt><trkpt lat="44.810995" lon="9.21826"><ele>462.0</ele><time>2026-04-21T16:56:33.666Z</time></trkpt><trkpt lat="44.8111317" lon="9.218125"><ele>460.0</ele><time>2026-04-21T16:56:34.667Z</time></trkpt><trkpt lat="44.8112817" lon="9.2180017"><ele>458.0</ele><time>2026-04-21T16:56:35.666Z</time></trkpt><trkpt lat="44.811445" lon="9.2178967"><ele>458.0</ele><time>2026-04-21T16:56:36.666Z</time></trkpt><trkpt lat="44.811615" lon="9.2177817"><ele>458.0</ele><time>2026-04-21T16:56:37.666Z</time></trkpt><trkpt lat="44.811775" lon="9.217675"><ele>458.0</ele><time>2026-04-21T16:56:38.667Z</time></trkpt><trkpt lat="44.8119283" lon="9.2175567"><ele>458.0</ele><time>2026-04-21T16:56:39.666Z</time></trkpt><trkpt lat="44.8120933" lon="9.21743"><ele>458.0</ele><time>2026-04-21T16:56:40.666Z</time></trkpt><trkpt lat="44.8122467" lon="9.2173"><ele>458.0</ele><time>2026-04-21T16:56:41.667Z</time></trkpt><trkpt lat="44.81241" lon="9.2171633"><ele>458.0</ele><time>2026-04-21T16:56:42.666Z</time></trkpt><trkpt lat="44.81257" lon="9.21702"><ele>458.0</ele><time>2026-04-21T16:56:43.666Z</time></trkpt><trkpt lat="44.8127267" lon="9.216875"><ele>458.0</ele><time>2026-04-21T16:56:44.667Z</time></trkpt><trkpt lat="44.81289" lon="9.2167417"><ele>457.3333333333333</ele><time>2026-04-21T16:56:45.666Z</time></trkpt><trkpt lat="44.8130483" lon="9.216605"><ele>456.66666666666663</ele><time>2026-04-21T16:56:46.666Z</time></trkpt><trkpt lat="44.8131933" lon="9.21647"><ele>456.0</ele><time>2026-04-21T16:56:47.666Z</time></trkpt><trkpt lat="44.8133383" lon="9.21634"><ele>456.0</ele><time>2026-04-21T16:56:48.667Z</time></trkpt><trkpt lat="44.8134733" lon="9.2162067"><ele>456.0</ele><time>2026-04-21T16:56:49.667Z</time></trkpt><trkpt lat="44.8135817" lon="9.2160667"><ele>456.0</ele><time>2026-04-21T16:56:50.667Z</time></trkpt><trkpt lat="44.8136833" lon="9.215935"><ele>456.5</ele><time>2026-04-21T16:56:51.666Z</time></trkpt><trkpt lat="44.81377" lon="9.2157933"><ele>457.0</ele><time>2026-04-21T16:56:52.666Z</time></trkpt><trkpt lat="44.8138417" lon="9.21562"><ele>457.5</ele><time>2026-04-21T16:56:53.666Z</time></trkpt><trkpt lat="44.8139217" lon="9.2154367"><ele>458.0</ele><time>2026-04-21T16:56:54.667Z</time></trkpt><trkpt lat="44.8140017" lon="9.2152333"><ele>458.0</ele><time>2026-04-21T16:56:55.666Z</time></trkpt><trkpt lat="44.814075" lon="9.2150367"><ele>458.0</ele><time>2026-04-21T16:56:56.666Z</time></trkpt><trkpt lat="44.814155" lon="9.21485"><ele>458.0</ele><time>2026-04-21T16:56:57.666Z</time></trkpt><trkpt lat="44.8142117" lon="9.2146683"><ele>457.0</ele><time>2026-04-21T16:56:58.666Z</time></trkpt><trkpt lat="44.8143" lon="9.2145217"><ele>456.0</ele><time>2026-04-21T16:56:59.666Z</time></trkpt><trkpt lat="44.8143983" lon="9.2143817"><ele>455.0</ele><time>2026-04-21T16:57:00.666Z</time></trkpt><trkpt lat="44.8145217" lon="9.21427"><ele>454.0</ele><time>2026-04-21T16:57:01.666Z</time></trkpt><trkpt lat="44.814655" lon="9.2141983"><ele>454.0</ele><time>2026-04-21T16:57:02.666Z</time></trkpt><trkpt lat="44.814805" lon="9.21417"><ele>454.0</ele><time>2026-04-21T16:57:03.667Z</time></trkpt><trkpt lat="44.8149633" lon="9.21416"><ele>454.0</ele><time>2026-04-21T16:57:04.666Z</time></trkpt><trkpt lat="44.8151283" lon="9.214155"><ele>455.33333333333337</ele><time>2026-04-21T16:57:05.666Z</time></trkpt><trkpt lat="44.81529" lon="9.2141367"><ele>456.66666666666663</ele><time>2026-04-21T16:57:06.667Z</time></trkpt><trkpt lat="44.815445" lon="9.2141017"><ele>458.0</ele><time>2026-04-21T16:57:07.666Z</time></trkpt><trkpt lat="44.8155933" lon="9.2140417"><ele>456.0</ele><time>2026-04-21T16:57:08.667Z</time></trkpt><trkpt lat="44.815745" lon="9.21396"><ele>454.0</ele><time>2026-04-21T16:57:09.667Z</time></trkpt><trkpt lat="44.815885" lon="9.2138567"><ele>452.0</ele><time>2026-04-21T16:57:10.667Z</time></trkpt><trkpt lat="44.8160283" lon="9.2137617"><ele>452.0</ele><time>2026-04-21T16:57:11.666Z</time></trkpt><trkpt lat="44.81617" lon="9.213675"><ele>452.0</ele><time>2026-04-21T16:57:12.667Z</time></trkpt><trkpt lat="44.81633" lon="9.2135883"><ele>452.0</ele><time>2026-04-21T16:57:13.666Z</time></trkpt><trkpt lat="44.8164917" lon="9.2135083"><ele>452.0</ele><time>2026-04-21T16:57:14.666Z</time></trkpt><trkpt lat="44.8166583" lon="9.2134367"><ele>452.0</ele><time>2026-04-21T16:57:15.667Z</time></trkpt><trkpt lat="44.8168383" lon="9.2133617"><ele>452.0</ele><time>2026-04-21T16:57:16.666Z</time></trkpt><trkpt lat="44.8170183" lon="9.2133017"><ele>452.66666666666663</ele><time>2026-04-21T16:57:17.666Z</time></trkpt><trkpt lat="44.8171917" lon="9.213245"><ele>453.33333333333337</ele><time>2026-04-21T16:57:18.667Z</time></trkpt><trkpt lat="44.817335" lon="9.21321"><ele>454.0</ele><time>2026-04-21T16:57:19.666Z</time></trkpt><trkpt lat="44.817475" lon="9.2132183"><ele>454.0</ele><time>2026-04-21T16:57:20.667Z</time></trkpt><trkpt lat="44.8176167" lon="9.2132517"><ele>454.0</ele><time>2026-04-21T16:57:21.666Z</time></trkpt><trkpt lat="44.8177533" lon="9.213305"><ele>454.0</ele><time>2026-04-21T16:57:22.667Z</time></trkpt><trkpt lat="44.8178917" lon="9.2133833"><ele>454.0</ele><time>2026-04-21T16:57:23.667Z</time></trkpt><trkpt lat="44.8180283" lon="9.2134767"><ele>453.0</ele><time>2026-04-21T16:57:24.667Z</time></trkpt><trkpt lat="44.8181617" lon="9.213565"><ele>452.0</ele><time>2026-04-21T16:57:25.667Z</time></trkpt><trkpt lat="44.818295" lon="9.2136517"><ele>451.0</ele><time>2026-04-21T16:57:26.666Z</time></trkpt><trkpt lat="44.8184167" lon="9.213725"><ele>450.0</ele><time>2026-04-21T16:57:27.666Z</time></trkpt><trkpt lat="44.81853" lon="9.213805"><ele>449.2</ele><time>2026-04-21T16:57:28.666Z</time></trkpt><trkpt lat="44.8186317" lon="9.2138733"><ele>448.4</ele><time>2026-04-21T16:57:29.667Z</time></trkpt><trkpt lat="44.8187067" lon="9.2139067"><ele>447.6</ele><time>2026-04-21T16:57:30.666Z</time></trkpt><trkpt lat="44.8188033" lon="9.2139233"><ele>446.8</ele><time>2026-04-21T16:57:32.666Z</time></trkpt><trkpt lat="44.8189017" lon="9.2138383"><ele>446.0</ele><time>2026-04-21T16:57:34.666Z</time></trkpt><trkpt lat="44.8189817" lon="9.2137333"><ele>446.0</ele><time>2026-04-21T16:57:35.667Z</time></trkpt><trkpt lat="44.8190883" lon="9.2135933"><ele>446.0</ele><time>2026-04-21T16:57:36.667Z</time></trkpt><trkpt lat="44.8192183" lon="9.21346"><ele>446.0</ele><time>2026-04-21T16:57:37.666Z</time></trkpt><trkpt lat="44.819355" lon="9.2133467"><ele>446.75</ele><time>2026-04-21T16:57:38.667Z</time></trkpt><trkpt lat="44.81948" lon="9.2132517"><ele>447.5</ele><time>2026-04-21T16:57:39.667Z</time></trkpt><trkpt lat="44.8195833" lon="9.2131533"><ele>448.25</ele><time>2026-04-21T16:57:40.666Z</time></trkpt><trkpt lat="44.8196517" lon="9.2130583"><ele>449.0</ele><time>2026-04-21T16:57:41.667Z</time></trkpt><trkpt lat="44.8196833" lon="9.2129383"><ele>451.25</ele><time>2026-04-21T16:57:42.666Z</time></trkpt><trkpt lat="44.819705" lon="9.2127783"><ele>453.5</ele><time>2026-04-21T16:57:43.667Z</time></trkpt><trkpt lat="44.8196983" lon="9.2125917"><ele>455.75</ele><time>2026-04-21T16:57:44.666Z</time></trkpt><trkpt lat="44.819655" lon="9.2123817"><ele>458.0</ele><time>2026-04-21T16:57:45.666Z</time></trkpt><trkpt lat="44.819595" lon="9.2121583"><ele>460.0</ele><time>2026-04-21T16:57:46.667Z</time></trkpt><trkpt lat="44.8195367" lon="9.2119317"><ele>462.0</ele><time>2026-04-21T16:57:47.666Z</time></trkpt><trkpt lat="44.8194833" lon="9.21171"><ele>464.0</ele><time>2026-04-21T16:57:48.666Z</time></trkpt><trkpt lat="44.8194317" lon="9.21149"><ele>465.3333333333333</ele><time>2026-04-21T16:57:49.666Z</time></trkpt><trkpt lat="44.819385" lon="9.2112583"><ele>466.66666666666663</ele><time>2026-04-21T16:57:50.666Z</time></trkpt><trkpt lat="44.8193317" lon="9.2110317"><ele>468.0</ele><time>2026-04-21T16:57:51.666Z</time></trkpt><trkpt lat="44.8192733" lon="9.2108083"><ele>459.66666666666663</ele><time>2026-04-21T16:57:52.666Z</time></trkpt><trkpt lat="44.8192267" lon="9.2105933"><ele>451.3333333333333</ele><time>2026-04-21T16:57:53.667Z</time></trkpt><trkpt lat="44.8191767" lon="9.2103817"><ele>443.0</ele><time>2026-04-21T16:57:54.666Z</time></trkpt><trkpt lat="44.81913" lon="9.2101667"><ele>443.0</ele><time>2026-04-21T16:57:55.666Z</time></trkpt><trkpt lat="44.8190933" lon="9.2099667"><ele>443.0</ele><time>2026-04-21T16:57:56.667Z</time></trkpt><trkpt lat="44.8190467" lon="9.2097733"><ele>443.0</ele><time>2026-04-21T16:57:57.667Z</time></trkpt><trkpt lat="44.8190283" lon="9.209595"><ele>443.0</ele><time>2026-04-21T16:57:58.667Z</time></trkpt><trkpt lat="44.819035" lon="9.20942"><ele>442.0</ele><time>2026-04-21T16:57:59.667Z</time></trkpt><trkpt lat="44.819065" lon="9.2092417"><ele>441.0</ele><time>2026-04-21T16:58:00.667Z</time></trkpt><trkpt lat="44.819115" lon="9.2090883"><ele>440.0</ele><time>2026-04-21T16:58:01.666Z</time></trkpt><trkpt lat="44.8191867" lon="9.208935"><ele>439.0</ele><time>2026-04-21T16:58:02.666Z</time></trkpt><trkpt lat="44.8192817" lon="9.208785"><ele>439.33333333333337</ele><time>2026-04-21T16:58:03.666Z</time></trkpt><trkpt lat="44.8193967" lon="9.208625"><ele>439.66666666666663</ele><time>2026-04-21T16:58:04.667Z</time></trkpt><trkpt lat="44.8195167" lon="9.2084617"><ele>440.0</ele><time>2026-04-21T16:58:05.666Z</time></trkpt><trkpt lat="44.8196283" lon="9.2083033"><ele>438.3333333333333</ele><time>2026-04-21T16:58:06.667Z</time></trkpt><trkpt lat="44.81974" lon="9.208145"><ele>436.66666666666663</ele><time>2026-04-21T16:58:07.667Z</time></trkpt><trkpt lat="44.819845" lon="9.2079817"><ele>435.0</ele><time>2026-04-21T16:58:08.667Z</time></trkpt><trkpt lat="44.8199467" lon="9.2078283"><ele>435.0</ele><time>2026-04-21T16:58:09.667Z</time></trkpt><trkpt lat="44.8200333" lon="9.2076667"><ele>435.0</ele><time>2026-04-21T16:58:10.666Z</time></trkpt><trkpt lat="44.820145" lon="9.20751"><ele>435.0</ele><time>2026-04-21T16:58:11.666Z</time></trkpt><trkpt lat="44.8202517" lon="9.20736"><ele>434.0</ele><time>2026-04-21T16:58:12.667Z</time></trkpt><trkpt lat="44.820365" lon="9.207205"><ele>433.0</ele><time>2026-04-21T16:58:13.666Z</time></trkpt><trkpt lat="44.8204833" lon="9.2070583"><ele>432.0</ele><time>2026-04-21T16:58:14.668Z</time></trkpt><trkpt lat="44.8205883" lon="9.2068933"><ele>432.0</ele><time>2026-04-21T16:58:15.668Z</time></trkpt><trkpt lat="44.82069" lon="9.20674"><ele>432.0</ele><time>2026-04-21T16:58:16.668Z</time></trkpt><trkpt lat="44.8207983" lon="9.2065883"><ele>432.0</ele><time>2026-04-21T16:58:17.667Z</time></trkpt><trkpt lat="44.8209017" lon="9.206445"><ele>432.0</ele><time>2026-04-21T16:58:18.668Z</time></trkpt><trkpt lat="44.8210033" lon="9.2062983"><ele>432.0</ele><time>2026-04-21T16:58:19.667Z</time></trkpt><trkpt lat="44.8211067" lon="9.20614"><ele>432.0</ele><time>2026-04-21T16:58:20.668Z</time></trkpt><trkpt lat="44.8211983" lon="9.2059983"><ele>432.0</ele><time>2026-04-21T16:58:21.668Z</time></trkpt><trkpt lat="44.8213" lon="9.2058483"><ele>432.0</ele><time>2026-04-21T16:58:22.668Z</time></trkpt><trkpt lat="44.8214067" lon="9.2057017"><ele>431.0</ele><time>2026-04-21T16:58:23.667Z</time></trkpt><trkpt lat="44.8215017" lon="9.2055667"><ele>430.0</ele><time>2026-04-21T16:58:24.667Z</time></trkpt><trkpt lat="44.821585" lon="9.2054267"><ele>429.0</ele><time>2026-04-21T16:58:25.667Z</time></trkpt><trkpt lat="44.821665" lon="9.205275"><ele>428.0</ele><time>2026-04-21T16:58:26.667Z</time></trkpt><trkpt lat="44.8217267" lon="9.2051217"><ele>428.0</ele><time>2026-04-21T16:58:27.668Z</time></trkpt><trkpt lat="44.8218017" lon="9.204945"><ele>428.0</ele><time>2026-04-21T16:58:28.667Z</time></trkpt><trkpt lat="44.821865" lon="9.2047667"><ele>428.0</ele><time>2026-04-21T16:58:29.667Z</time></trkpt><trkpt lat="44.8219167" lon="9.204585"><ele>428.0</ele><time>2026-04-21T16:58:30.668Z</time></trkpt><trkpt lat="44.8219517" lon="9.20439"><ele>428.75</ele><time>2026-04-21T16:58:31.667Z</time></trkpt><trkpt lat="44.82199" lon="9.2041933"><ele>429.5</ele><time>2026-04-21T16:58:32.668Z</time></trkpt><trkpt lat="44.8220333" lon="9.2039917"><ele>430.25</ele><time>2026-04-21T16:58:33.668Z</time></trkpt><trkpt lat="44.8220817" lon="9.2037967"><ele>431.0</ele><time>2026-04-21T16:58:34.668Z</time></trkpt><trkpt lat="44.82211" lon="9.2035867"><ele>429.0</ele><time>2026-04-21T16:58:35.667Z</time></trkpt><trkpt lat="44.8221683" lon="9.2033933"><ele>427.0</ele><time>2026-04-21T16:58:36.667Z</time></trkpt><trkpt lat="44.8222233" lon="9.2031983"><ele>425.0</ele><time>2026-04-21T16:58:37.668Z</time></trkpt><trkpt lat="44.82227" lon="9.2029967"><ele>423.0</ele><time>2026-04-21T16:58:38.667Z</time></trkpt><trkpt lat="44.8223267" lon="9.2028067"><ele>423.0</ele><time>2026-04-21T16:58:39.668Z</time></trkpt><trkpt lat="44.822385" lon="9.2026133"><ele>423.0</ele><time>2026-04-21T16:58:40.667Z</time></trkpt><trkpt lat="44.8224317" lon="9.2024217"><ele>423.0</ele><time>2026-04-21T16:58:41.667Z</time></trkpt><trkpt lat="44.8224733" lon="9.2022433"><ele>423.0</ele><time>2026-04-21T16:58:42.667Z</time></trkpt><trkpt lat="44.8225217" lon="9.2020617"><ele>422.75</ele><time>2026-04-21T16:58:43.668Z</time></trkpt><trkpt lat="44.8225717" lon="9.2018883"><ele>422.5</ele><time>2026-04-21T16:58:44.668Z</time></trkpt><trkpt lat="44.8226267" lon="9.2017167"><ele>422.25</ele><time>2026-04-21T16:58:45.668Z</time></trkpt><trkpt lat="44.8226633" lon="9.20156"><ele>422.0</ele><time>2026-04-21T16:58:46.667Z</time></trkpt><trkpt lat="44.8227067" lon="9.20141"><ele>421.40000000000003</ele><time>2026-04-21T16:58:47.668Z</time></trkpt><trkpt lat="44.822735" lon="9.2012567"><ele>420.8</ele><time>2026-04-21T16:58:48.668Z</time></trkpt><trkpt lat="44.8227817" lon="9.20111"><ele>420.2</ele><time>2026-04-21T16:58:49.668Z</time></trkpt><trkpt lat="44.822815" lon="9.2009717"><ele>419.6</ele><time>2026-04-21T16:58:50.668Z</time></trkpt><trkpt lat="44.82285" lon="9.2008567"><ele>419.0</ele><time>2026-04-21T16:58:51.667Z</time></trkpt><trkpt lat="44.8228633" lon="9.200755"><ele>418.79999999999995</ele><time>2026-04-21T16:58:52.668Z</time></trkpt><trkpt lat="44.82286" lon="9.20061"><ele>418.59999999999997</ele><time>2026-04-21T16:58:54.667Z</time></trkpt><trkpt lat="44.8227517" lon="9.2005333"><ele>418.4</ele><time>2026-04-21T16:58:56.667Z</time></trkpt><trkpt lat="44.8226567" lon="9.2005"><ele>418.2</ele><time>2026-04-21T16:58:57.668Z</time></trkpt><trkpt lat="44.822555" lon="9.2004517"><ele>418.0</ele><time>2026-04-21T16:58:58.668Z</time></trkpt><trkpt lat="44.822455" lon="9.200405"><ele>417.2</ele><time>2026-04-21T16:58:59.668Z</time></trkpt><trkpt lat="44.8223583" lon="9.2003483"><ele>416.4</ele><time>2026-04-21T16:59:00.668Z</time></trkpt><trkpt lat="44.8222583" lon="9.2003017"><ele>415.59999999999997</ele><time>2026-04-21T16:59:01.667Z</time></trkpt><trkpt lat="44.8221633" lon="9.2002533"><ele>414.79999999999995</ele><time>2026-04-21T16:59:02.668Z</time></trkpt><trkpt lat="44.82208" lon="9.2001983"><ele>414.0</ele><time>2026-04-21T16:59:03.668Z</time></trkpt><trkpt lat="44.8219983" lon="9.20014"><ele>414.0</ele><time>2026-04-21T16:59:04.667Z</time></trkpt><trkpt lat="44.82192" lon="9.2000867"><ele>414.0</ele><time>2026-04-21T16:59:05.667Z</time></trkpt><trkpt lat="44.82185" lon="9.2000417"><ele>414.0</ele><time>2026-04-21T16:59:06.667Z</time></trkpt><trkpt lat="44.8217833" lon="9.1999733"><ele>414.0</ele><time>2026-04-21T16:59:07.668Z</time></trkpt><trkpt lat="44.8217283" lon="9.1999017"><ele>414.0</ele><time>2026-04-21T16:59:08.668Z</time></trkpt><trkpt lat="44.8216817" lon="9.1997783"><ele>414.0</ele><time>2026-04-21T16:59:10.667Z</time></trkpt><trkpt lat="44.821685" lon="9.1996817"><ele>413.7142857142857</ele><time>2026-04-21T16:59:12.668Z</time></trkpt><trkpt lat="44.8217283" lon="9.19961"><ele>413.42857142857144</ele><time>2026-04-21T16:59:14.668Z</time></trkpt><trkpt lat="44.8217783" lon="9.1995483"><ele>413.1428571428571</ele><time>2026-04-21T16:59:16.668Z</time></trkpt><trkpt lat="44.821795" lon="9.19942"><ele>412.8571428571429</ele><time>2026-04-21T16:59:19.668Z</time></trkpt><trkpt lat="44.8218" lon="9.1993217"><ele>412.57142857142856</ele><time>2026-04-21T16:59:21.668Z</time></trkpt><trkpt lat="44.8218117" lon="9.1992183"><ele>412.2857142857143</ele><time>2026-04-21T16:59:23.667Z</time></trkpt><trkpt lat="44.8218367" lon="9.199115"><ele>412.0</ele><time>2026-04-21T16:59:25.668Z</time></trkpt><trkpt lat="44.8218583" lon="9.198995"><ele>411.6</ele><time>2026-04-21T16:59:27.668Z</time></trkpt><trkpt lat="44.8218767" lon="9.1988567"><ele>411.20000000000005</ele><time>2026-04-21T16:59:29.668Z</time></trkpt><trkpt lat="44.8218933" lon="9.198705"><ele>410.8</ele><time>2026-04-21T16:59:31.668Z</time></trkpt><trkpt lat="44.8219083" lon="9.19857"><ele>410.4</ele><time>2026-04-21T16:59:33.668Z</time></trkpt><trkpt lat="44.821925" lon="9.198455"><ele>410.0</ele><time>2026-04-21T16:59:35.667Z</time></trkpt><trkpt lat="44.82196" lon="9.1983383"><ele>410.0</ele><time>2026-04-21T16:59:37.667Z</time></trkpt><trkpt lat="44.8219917" lon="9.19825"><ele>410.0</ele><time>2026-04-21T16:59:39.667Z</time></trkpt><trkpt lat="44.8219933" lon="9.1981283"><ele>410.0</ele><time>2026-04-21T17:04:34.667Z</time></trkpt><trkpt lat="44.822" lon="9.1979683"><ele>410.0</ele><time>2026-04-21T17:04:36.668Z</time></trkpt><trkpt lat="44.8220483" lon="9.19784"><ele>410.0</ele><time>2026-04-21T17:04:38.667Z</time></trkpt><trkpt lat="44.8221333" lon="9.1977567"><ele>409.66666666666663</ele><time>2026-04-21T17:04:40.667Z</time></trkpt><trkpt lat="44.822165" lon="9.19768"><ele>409.3333333333333</ele><time>2026-04-21T17:04:41.668Z</time></trkpt><trkpt lat="44.8221917" lon="9.1975767"><ele>409.0</ele><time>2026-04-21T17:04:42.668Z</time></trkpt><trkpt lat="44.8222133" lon="9.1974633"><ele>408.66666666666663</ele><time>2026-04-21T17:04:43.668Z</time></trkpt><trkpt lat="44.8222283" lon="9.1973233"><ele>408.3333333333333</ele><time>2026-04-21T17:04:44.667Z</time></trkpt><trkpt lat="44.82225" lon="9.19717"><ele>408.0</ele><time>2026-04-21T17:04:45.667Z</time></trkpt><trkpt lat="44.8222717" lon="9.1970217"><ele>407.8333333333333</ele><time>2026-04-21T17:04:46.667Z</time></trkpt><trkpt lat="44.822305" lon="9.1968817"><ele>407.66666666666663</ele><time>2026-04-21T17:04:47.668Z</time></trkpt><trkpt lat="44.8223317" lon="9.196755"><ele>407.5</ele><time>2026-04-21T17:04:48.667Z</time></trkpt><trkpt lat="44.822355" lon="9.1966333"><ele>407.3333333333333</ele><time>2026-04-21T17:04:49.667Z</time></trkpt><trkpt lat="44.8223817" lon="9.1965233"><ele>407.16666666666663</ele><time>2026-04-21T17:04:50.667Z</time></trkpt><trkpt lat="44.8224017" lon="9.1964183"><ele>407.0</ele><time>2026-04-21T17:04:51.668Z</time></trkpt><trkpt lat="44.8224283" lon="9.1963067"><ele>406.8333333333333</ele><time>2026-04-21T17:04:52.668Z</time></trkpt><trkpt lat="44.8224517" lon="9.19619"><ele>406.66666666666663</ele><time>2026-04-21T17:04:53.667Z</time></trkpt><trkpt lat="44.8224633" lon="9.1960783"><ele>406.5</ele><time>2026-04-21T17:04:54.667Z</time></trkpt><trkpt lat="44.8224817" lon="9.195975"><ele>406.33333333333337</ele><time>2026-04-21T17:04:55.668Z</time></trkpt><trkpt lat="44.82251" lon="9.1958667"><ele>406.1666666666667</ele><time>2026-04-21T17:04:56.668Z</time></trkpt><trkpt lat="44.822545" lon="9.19576"><ele>406.0</ele><time>2026-04-21T17:04:57.667Z</time></trkpt><trkpt lat="44.8225667" lon="9.1956617"><ele>406.0</ele><time>2026-04-21T17:04:58.668Z</time></trkpt><trkpt lat="44.8226017" lon="9.1954983"><ele>406.0</ele><time>2026-04-21T17:05:00.668Z</time></trkpt><trkpt lat="44.8226433" lon="9.1953483"><ele>406.0</ele><time>2026-04-21T17:05:02.667Z</time></trkpt><trkpt lat="44.82267" lon="9.1951983"><ele>406.0</ele><time>2026-04-21T17:05:04.667Z</time></trkpt><trkpt lat="44.822695" lon="9.1950517"><ele>406.0</ele><time>2026-04-21T17:05:06.668Z</time></trkpt><trkpt lat="44.8226767" lon="9.194905"><ele>406.0</ele><time>2026-04-21T17:05:08.668Z</time></trkpt><trkpt lat="44.82265" lon="9.1947933"><ele>406.0</ele><time>2026-04-21T17:05:10.667Z</time></trkpt><trkpt lat="44.82272" lon="9.19475"><ele>406.0</ele><time>2026-04-21T17:05:13.667Z</time></trkpt><trkpt lat="44.8228467" lon="9.1947617"><ele>406.0</ele><time>2026-04-21T17:05:15.667Z</time></trkpt><trkpt lat="44.8229333" lon="9.1947667"><ele>406.0</ele><time>2026-04-21T17:05:16.668Z</time></trkpt><trkpt lat="44.8230133" lon="9.1947733"><ele>406.0</ele><time>2026-04-21T17:05:17.667Z</time></trkpt><trkpt lat="44.823085" lon="9.1947767"><ele>406.0</ele><time>2026-04-21T17:05:18.667Z</time></trkpt><trkpt lat="44.8231533" lon="9.1948067"><ele>406.0</ele><time>2026-04-21T17:05:20.667Z</time></trkpt><trkpt lat="44.8231717" lon="9.1949467"><ele>406.0</ele><time>2026-04-21T17:05:24.667Z</time></trkpt><trkpt lat="44.8231833" lon="9.1951267"><ele>406.00000000000006</ele><time>2026-04-21T17:05:26.668Z</time></trkpt><trkpt lat="44.8231983" lon="9.1952417"><ele>406.0</ele><time>2026-04-21T17:05:27.667Z</time></trkpt><trkpt lat="44.8232117" lon="9.1953417"><ele>406.0</ele><time>2026-04-21T17:05:28.668Z</time></trkpt><trkpt lat="44.823235" lon="9.1954533"><ele>406.0</ele><time>2026-04-21T17:05:29.667Z</time></trkpt><trkpt lat="44.82326" lon="9.1955383"><ele>406.00000000000006</ele><time>2026-04-21T17:05:30.667Z</time></trkpt><trkpt lat="44.8232767" lon="9.19563"><ele>406.0</ele><time>2026-04-21T17:05:31.667Z</time></trkpt><trkpt lat="44.8233067" lon="9.19578"><ele>406.85714285714283</ele><time>2026-04-21T17:05:33.668Z</time></trkpt><trkpt lat="44.8233183" lon="9.1958917"><ele>407.7142857142857</ele><time>2026-04-21T17:05:35.668Z</time></trkpt><trkpt lat="44.82331" lon="9.1959967"><ele>408.57142857142856</ele><time>2026-04-21T17:05:38.668Z</time></trkpt><trkpt lat="44.8233567" lon="9.1960867"><ele>409.42857142857144</ele><time>2026-04-21T17:05:48.668Z</time></trkpt><trkpt lat="44.8233883" lon="9.19617"><ele>410.2857142857143</ele><time>2026-04-21T17:11:25.667Z</time></trkpt><trkpt lat="44.8234367" lon="9.1962417"><ele>411.1428571428571</ele><time>2026-04-21T17:11:29.668Z</time></trkpt><trkpt lat="44.8234883" lon="9.1963083"><ele>412.0</ele><time>2026-04-21T17:11:35.667Z</time></trkpt><trkpt lat="44.82354" lon="9.1963867"><ele>412.00000000000006</ele><time>2026-04-21T17:11:42.668Z</time></trkpt><trkpt lat="44.8236" lon="9.1964317"><ele>412.0</ele><time>2026-04-21T17:11:47.667Z</time></trkpt><trkpt lat="44.8236617" lon="9.1964883"><ele>412.0</ele><time>2026-04-21T17:11:51.668Z</time></trkpt><trkpt lat="44.8237583" lon="9.1964717"><ele>412.0</ele><time>2026-04-21T17:12:04.668Z</time></trkpt><trkpt lat="44.8237917" lon="9.19655"><ele>412.00000000000006</ele><time>2026-04-21T17:12:11.667Z</time></trkpt><trkpt lat="44.8239217" lon="9.1965083"><ele>412.0</ele><time>2026-04-21T17:12:36.668Z</time></trkpt><trkpt lat="44.8238967" lon="9.196195"><ele>412.0</ele><time>2026-04-21T17:12:47.667Z</time></trkpt><trkpt lat="44.8238133" lon="9.1961383"><ele>412.0</ele><time>2026-04-21T17:12:50.668Z</time></trkpt><trkpt lat="44.82376" lon="9.1960317"><ele>412.0</ele><time>2026-04-21T17:12:56.668Z</time></trkpt><trkpt lat="44.8234116" lon="9.1960307"><ele>412.0</ele><time>2026-04-21T17:13:18.628Z</time></trkpt></trkseg></trk></gpx>